Terminal Aerodrome Forecast
Issued by NWS

Home | Current Version | Previous Version | Text Only | Print | Product List | Glossary On
Versions: 1 2 3 4 5 6 7 8 9 10 11 12 13 14 15 16 17 18 19
507
FTUS43 KPAH 072334
TAFCGI
TAF
KCGI 072334Z 0800/0824 35006KT P6SM BKN060
     FM080900 33009KT P6SM SCT150=

USA.gov is the U.S. government's official web portal to all federal, state and local government web resources and services.